Terminal Aerodrome Forecast
Issued by NWS

Home | Current Version | Previous Version | Text Only | Print | Product List | Glossary On
Versions: 1 2 3 4 5 6 7 8 9 10 11 12 13 14 15 16 17 18 19
000
FTUS44 KLZK 272300
TAFHRO
TAF
KHRO 272333Z 2800/2824 08008G16KT P6SM BKN100
     FM280900 06010KT P6SM VCSH SCT050 OVC100 PROB30 2809/2815 6SM
      -RA BKN050
     FM281500 04012KT P6SM SCT100 OVC250=

USA.gov is the U.S. government's official web portal to all federal, state and local government web resources and services.